FEFF

Bangui M'Poko International Airport

Bangui, Central African Republic
METAR FEFF 252200Z 10004KT 8000 TS FEW013 FEW033CB 24/23 Q1010 BECMG NSW
Observed Flight Rules
May-25 @ 22:00 UTC (36 minutes ago) Marginal Visual Flight Rules
Wind Visibility Clouds Conditions
100° at 4 knots 7,998 meters
  • Few at 1,300' AGL
  • Few at 3,300' AGL
  • Thunderstorm
Temperatures Readings
Current 24°C / 75°F
Dewpoint 23°C / 73°F
Humidity 94%
Altimeter 29.82" Hg
Pressure 1010 hPa
Elevation 366
METAR FEFF 252200Z 10004KT 8000 TS FEW013 FEW033CB 24/23 Q1010 BECMG NSW
Observed Flight Rules
May-25 @ 22:00 UTC
(36 minutes ago)
MVFR
Wind Visibility
100° at 4 knots 7,998 meters
Clouds
  • Few at 1,300' AGL
  • Few at 3,300' AGL
Conditions
  • Thunderstorm
Temperature Dewpoint
24°C / 75°F 23°C / 73°F
Humidity Altimeter Pressure
94% 29.82" Hg 1010 hPa